• Join FlightAware (Why Join?)
  • Login
  • US Flag 
11:14AM EST


 

Airport Tracker/Info


-or-


 

Live Flight TrackerFlight Track Log ✈ THY804 ✈ 07-Jul-2013 ✈ LTBA / IST - ORER / EBL

Flight Track Log - Related Links

Times and Time Zones

All times are in EDT time to prevent confusion due to time zone crossing. See the THY804 flight status page for this flight to view local times or setup timezone preferences in your user account.

Time Position Orientation Groundspeed Altitude Reporting Facility
EDT Latitude Longitude Course Direction KTS MPH feet Rate Location/Type
05:45PM 40.9700 28.8110 225° Southwest  Level FlightAware
05:50PM 41.0080 28.8060 354° North 149 171 1,700 360 Climbing FlightAware
05:51PM 41.0400 28.8060 360° North 189 217 2,400 1,140 Climbing FlightAware
05:51PM 41.0640 28.8070 North 212 244 3,000 1,740 Climbing FlightAware
05:52PM 41.0850 28.8330 43° Northeast 214 246 4,000 2,040 Climbing FlightAware
05:53PM 41.0940 28.9140 82° East 245 282 5,900 2,160 Climbing FlightAware
05:54PM 41.1040 28.9810 79° East 260 299 7,700 2,280 Climbing FlightAware
05:54PM 41.1100 29.0240 79° East 268 308 8,600 2,220 Climbing FlightAware
05:54PM 41.1160 29.0650 79° East 273 314 9,700 1,200 Climbing FlightAware
05:55PM 41.1210 29.1380 85° East 280 322 10,200 1,800 Climbing FlightAware
05:55PM 41.0880 29.1540 160° South 297 342 11,400 3,000 Climbing FlightAware
05:56PM 41.0390 29.2090 140° Southeast 317 365 12,900 2,040 Climbing FlightAware
05:57PM 40.9940 29.2630 138° Southeast 327 376 14,300 1,800 Climbing FlightAware
05:57PM 40.9850 29.2830 121° Southeast 331 381 14,600 1,260 Climbing FlightAware
05:58PM 40.9610 29.3770 109° East 360 414 15,600 840 Climbing FlightAware
05:59PM 40.9400 29.4970 103° East 395 455 16,000 240 Climbing FlightAware
05:59PM 40.9350 29.5900 94° East 396 456 16,000  Level FlightAware
06:00PM 40.9290 29.6840 95° East 398 458 16,000  Level FlightAware
06:01PM 40.9250 29.7870 93° East 398 458 16,000 300 Level FlightAware
06:01PM 40.9320 29.8620 83° East 396 456 16,400 840 Climbing FlightAware
06:02PM 40.9380 29.9560 85° East 403 464 17,000 1,200 Climbing FlightAware
06:03PM 40.9470 30.0840 85° East 411 473 18,200 1,920 Climbing FlightAware
06:03PM 40.9530 30.1900 86° East 400 460 20,000 2,280 Climbing FlightAware
06:04PM 40.9620 30.3130 84° East 391 450 21,900 1,680 Climbing FlightAware
06:05PM 40.9710 30.4090 83° East 404 465 22,700 1,320 Climbing FlightAware
06:06PM 40.9490 30.6030 98° East 391 450 24,600 1,260 Climbing FlightAware
06:07PM 40.9090 30.6800 124° Southeast 405 466 25,300 1,080 Climbing FlightAware
06:08PM 40.8670 30.7600 125° Southeast 405 466 26,100 1,200 Climbing FlightAware
06:08PM 40.8240 30.8430 124° Southeast 408 470 26,900 1,200 Climbing FlightAware
06:09PM 40.7840 30.9210 124° Southeast 407 468 27,700 960 Climbing FlightAware
06:10PM 40.7270 31.0290 125° Southeast 415 478 28,400 840 Climbing FlightAware
06:11PM 40.6470 31.1820 125° Southeast 428 493 29,500 840 Climbing FlightAware
06:12PM 40.6040 31.2650 124° Southeast 431 496 30,000 660 Climbing FlightAware
06:12PM 40.5500 31.3780 122° Southeast 451 519 30,500 420 Climbing FlightAware
06:13PM 40.5120 31.5190 109° East 469 540 30,700 300 Climbing FlightAware
06:14PM 40.4850 31.6150 110° East 30,900 360 Climbing FlightAware
06:14PM 40.4630 31.6940 110° East 477 549 31,100 420 Climbing FlightAware
06:17PM 40.3736 32.0181 110° East  Level Estimated
06:17PM 40.3450 32.1160 110° East 496 571 32,200  Level FlightAware
06:18PM 40.3090 32.2450 110° East 502 578 32,600 480 Climbing FlightAware
06:18PM 40.2760 32.3590 111° Southeast 503 579 32,900 240 Climbing FlightAware
06:19PM 40.2380 32.4900 111° Southeast 513 590 33,000 60 Climbing FlightAware
06:20PM 40.2100 32.5900 110° East 516 594 33,000  Level FlightAware
06:21PM 40.1680 32.7350 111° Southeast 515 593 33,000  Level FlightAware
06:21PM 40.1370 32.8420 111° Southeast 511 588 33,000  Level FlightAware
06:22PM 40.1040 32.9560 111° Southeast 514 592 33,000  Level FlightAware
06:22PM 40.0690 33.0740 111° Southeast 510 587 33,000  Level FlightAware
06:23PM 40.0320 33.2020 111° Southeast 509 586 33,000 -120 Level FlightAware
06:24PM 40.0090 33.2780 112° Southeast 510 587 32,900 -120 Descending FlightAware
06:24PM 39.9720 33.4050 111° Southeast 510 587 32,900 60 Level FlightAware
06:25PM 39.9470 33.5200 106° East 521 600 33,000 60 Climbing FlightAware
06:26PM 39.9210 33.6610 103° East 523 602 33,000  Level FlightAware
06:26PM 39.8960 33.7890 104° East 527 606 33,000  Level FlightAware
06:27PM 39.8700 33.9280 104° East 529 609 33,000 120 Level FlightAware
06:28PM 39.8460 34.0490 104° East 527 606 33,200 360 Climbing FlightAware
06:29PM 39.8240 34.1640 104° East 528 608 33,500 600 Climbing FlightAware
06:30PM 39.7880 34.3460 104° East 528 608 34,200 780 Climbing FlightAware
06:30PM 39.7680 34.4450 105° East 520 598 34,700 660 Climbing FlightAware
06:31PM 39.7440 34.5650 105° East 518 596 35,000 180 Climbing FlightAware
06:31PM 39.7170 34.7040 104° East 520 598 35,000  Level FlightAware
06:32PM 39.6920 34.8260 105° East 519 597 35,000  Level FlightAware
06:33PM 39.6650 34.9610 105° East 519 597 35,000  Level FlightAware
06:34PM 39.6410 35.0810 105° East 519 597 35,000  Level FlightAware
06:34PM 39.6190 35.1930 104° East 519 597 35,000  Level FlightAware
06:35PM 39.6010 35.2850 104° East 519 597 35,000  Level FlightAware
06:36PM 39.5830 35.3800 104° East 519 597 35,000  Level FlightAware
06:36PM 39.5590 35.5040 104° East 519 597 35,000  Level FlightAware
06:37PM 39.5410 35.5960 104° East 519 597 35,000  Level FlightAware
06:38PM 39.5240 35.6880 103° East 519 597 35,000  Level FlightAware
06:39PM 39.4870 35.8780 104° East 519 597 35,000  Level FlightAware
06:39PM 39.4690 35.9710 104° East 519 597 35,000  Level FlightAware
06:40PM 39.4460 36.0940 104° East 519 597 35,000  Level FlightAware
06:41PM 39.4280 36.1860 104° East 519 597 35,000  Level FlightAware
06:42PM 39.3970 36.3450 104° East 519 597 35,000  Level FlightAware
06:42PM 39.3790 36.4370 104° East 519 597 35,000  Level FlightAware
06:43PM 39.3560 36.5600 104° East 519 597 35,000  Level FlightAware
06:46PM 39.2287 36.8993 116° Southeast  Level Estimated
06:47PM 39.1735 37.0454 116° Southeast  Level Estimated
06:48PM 39.1180 37.1912 116° Southeast  Level Estimated
06:49PM 39.0624 37.3369 116° Southeast  Level Estimated
06:50PM 39.0066 37.4823 116° Southeast  Level Estimated
06:51PM 38.9507 37.6274 116° Southeast  Level Estimated
06:52PM 38.8945 37.7724 116° Southeast  Level Estimated
06:53PM 38.8382 37.9171 117° Southeast  Level Estimated
06:54PM 38.7817 38.0616 117° Southeast  Level Estimated
06:55PM 38.7250 38.2058 117° Southeast  Level Estimated
06:56PM 38.6681 38.3498 117° Southeast  Level Estimated
06:57PM 38.6111 38.4936 117° Southeast  Level Estimated
06:58PM 38.5539 38.6372 117° Southeast  Level Estimated
06:59PM 38.4965 38.7805 117° Southeast  Level Estimated
07:00PM 38.4389 38.9236 117° Southeast  Level Estimated
07:01PM 38.3812 39.0665 117° Southeast  Level Estimated
07:02PM 38.3232 39.2091 117° Southeast  Level Estimated
07:03PM 38.2652 39.3516 117° Southeast  Level Estimated
07:04PM 38.2069 39.4938 118° Southeast  Level Estimated
07:05PM 38.1485 39.6357 118° Southeast  Level Estimated
07:06PM 38.0899 39.7775 118° Southeast  Level Estimated
07:07PM 38.0311 39.9190 118° Southeast  Level Estimated
07:08PM 37.9722 40.0602 118° Southeast  Level Estimated
07:09PM 37.9131 40.2013 118° Southeast  Level Estimated
07:10PM 37.8538 40.3421 118° Southeast  Level Estimated
07:10PM 38.1680 41.3930 118° Southeast 497 572 35,000  Level FlightAware
07:11PM 38.1380 41.5210 107° East 496 571 35,000  Level FlightAware
07:11PM 38.1160 41.6110 107° East 496 571 35,000  Level FlightAware
07:12PM 38.0850 41.7450 106° East 496 571 35,000  Level FlightAware
07:13PM 38.0590 41.8590 106° East 496 571 35,000  Level FlightAware
07:13PM 38.0400 41.9450 106° East 496 571 35,000  Level FlightAware
07:14PM 38.0200 42.0310 106° East 496 571 35,000  Level FlightAware
07:15PM 37.9680 42.2180 109° East 497 572 35,000 -360 Level FlightAware
07:15PM 37.9410 42.3320 107° East 497 572 34,500 -900 Descending FlightAware
07:16PM 37.9100 42.4550 108° East 495 570 33,800 -960 Descending FlightAware
07:17PM 37.8750 42.5580 113° Southeast 495 570 33,200 -1,560 Descending FlightAware
07:18PM 37.8230 42.6670 121° Southeast 488 562 31,700 -2,100 Descending FlightAware
07:18PM 37.7730 42.7460 129° Southeast 480 552 30,400 -2,220 Descending FlightAware
07:19PM 37.7080 42.8260 136° Southeast 467 537 28,900 -2,220 Descending FlightAware
07:19PM 37.6440 42.8960 139° Southeast 458 527 27,500 -1,980 Descending FlightAware
07:20PM 37.5830 42.9630 139° Southeast 448 516 26,300 -1,620 Descending FlightAware
07:21PM 37.5190 43.0320 139° Southeast 431 496 25,400 -1,020 Descending FlightAware
07:21PM 37.4600 43.0970 139° Southeast 406 467 25,000 -360 Descending FlightAware
07:22PM 37.4110 43.1510 139° Southeast 380 437 25,000  Level FlightAware
07:23PM 37.3590 43.2070 139° Southeast 382 440 25,000 -420 Level FlightAware
07:23PM 37.2900 43.2500 154° Southeast 372 428 24,500 -1,140 Descending FlightAware
07:24PM 37.2250 43.2870 156° South 366 421 23,400 -2,400 Descending FlightAware
07:25PM 37.1590 43.3240 156° South 392 451 21,300 -2,520 Descending FlightAware
07:26PM 37.0880 43.3650 155° Southeast 386 444 19,900 -1,800 Descending FlightAware
07:26PM 37.0240 43.4000 156° South 374 430 18,800 -1,800 Descending FlightAware
07:27PM 36.9610 43.4360 155° Southeast 371 427 17,500 -1,860 Descending FlightAware
07:28PM 36.9020 43.4690 156° South 365 420 16,400 -1,920 Descending FlightAware
07:28PM 36.8350 43.5060 156° South 361 415 14,900 -1,860 Descending FlightAware
07:29PM 36.7740 43.5400 156° South 355 409 13,800 -1,620 Descending FlightAware
07:29PM 36.7370 43.5760 142° Southeast 360 414 13,100 -1,020 Descending FlightAware
07:30PM 36.7040 43.6500 119° Southeast 323 372 12,600 -1,140 Descending FlightAware
07:31PM 36.6740 43.7180 119° Southeast 300 345 11,500 -1,980 Descending FlightAware
07:31PM 36.6490 43.7750 119° Southeast 300 345 10,000 -2,100 Descending FlightAware
07:32PM 36.6320 43.8130 119° Southeast 290 334 9,300 -1,380 Descending FlightAware
07:32PM 36.6140 43.8530 119° Southeast 276 318 8,800 -1,020 Descending FlightAware
07:33PM 36.5970 43.8910 119° Southeast 264 304 8,400 -840 Descending FlightAware
07:33PM 36.5840 43.9200 119° Southeast 252 290 8,100 -1,080 Descending FlightAware
07:34PM 36.5710 43.9370 134° Southeast 242 278 7,700 -1,380 Descending FlightAware
07:34PM 36.5580 43.9410 166° South 226 260 7,400 -1,680 Descending FlightAware
07:34PM 36.5340 43.9420 178° South 212 244 6,700 -1,740 Descending FlightAware
07:35PM 36.5080 43.9480 169° South 215 247 5,900 -1,320 Descending FlightAware
07:35PM 36.4800 43.9480 180° South 207 238 5,500 -960 Descending FlightAware
07:35PM 36.4560 43.9480 180° South 197 227 5,100 -1,080 Descending FlightAware
07:36PM 36.4430 43.9480 180° South 195 224 4,800 -1,140 Descending FlightAware
07:36PM 36.4180 43.9480 180° South 193 222 4,300 -1,020 Descending FlightAware
07:37PM 36.3940 43.9480 180° South 189 217 3,900 -1,020 Descending FlightAware
07:37PM 36.3680 43.9480 180° South 188 216 3,400 -960 Descending FlightAware
07:38PM 36.3480 43.9470 182° South 177 204 3,100 -840 Descending FlightAware
07:38PM 36.3330 43.9470 180° South 169 194 2,800 -900 Descending FlightAware
07:38PM 36.3110 43.9470 180° South 162 186 2,400 -840 Descending FlightAware
07:39PM 36.2930 43.9470 180° South 159 183 2,100 -720 Descending FlightAware
07:39PM 36.2860 43.9470 180° South 157 181 2,000 -780 Descending FlightAware
07:39PM 36.2660 43.9470 180° South 150 173 1,600 -840 Descending FlightAware
07:40PM 36.2470 43.9470 180° South 125 144 -3,360 Descending FlightAware
07:40PM 36.2400 43.9470 180° South 42 48  Level FlightAware
07:41PM 36.2380 43.9470 180° South 29 33  Level FlightAware
07:41PM 36.2370 43.9480 141° Southeast 19 22  Level FlightAware
07:42PM 36.2360 43.9490 141° Southeast 34 39  Level FlightAware
07:42PM 36.2350 43.9490 180° South 29 33  Level FlightAware
07:42PM 36.2340 43.9490 180° South 34 39  Level FlightAware
07:42PM 36.2320 43.9490 180° South 31 36  Level FlightAware
07:43PM 36.2300 43.9490 180° South 30 35  Level FlightAware
07:44PM 36.2300 43.9520 90° East 21 24  Level FlightAware
07:44PM 36.2310 43.9520 360° North 24 28  Level FlightAware
07:44PM 36.2320 43.9520 360° North 22 25  Level FlightAware
07:45PM 36.2320 43.9530 90° East 21 24  Level FlightAware
07:45PM 36.2320 43.9540 90° East 9 10  Level FlightAware
07:48PM 36.2376 43.9632 53° Northeast  Level Estimated